Capitol Logistics 2320

Operating for ATN



BGTL
Thule Air Base
Thule, GL
KBWI
Baltimore/Washington International Thurgood Marshall Airport
Baltimore, US

Activity Log

Date Flight Route Aircraft Duration
04/13/2021 CPX2320 THT SAVIS TOMAS UK 70N057W 65N059W PEPKI YVP J479 YFM J482 MT N708A REEDO Q844 SYR J59 ZUUCS IZZEE TRISH3 B752 6h 20m

Route Details

Aircraft Information
Primary: Boeing 757-200SF
Backup: Not Available
Route Data
Distance: 2255nm
Duration: 5h 04m
Recm'd Route: LANAN MEDPA ADSAM CANEL AVPUT MOATT YDP N704A YBC YYY J561 PQI J55 PVD J225 JFK J79 VILLS LAFLN MIIDY2
Origin Wx: BGTL 020556Z AUTO 00000KT 9999 FEW120 05/05 A2955 RMK AO2 SLP991 T00500050 10078 20048 57022 TSNO $
Dest. Wx: KBWI 020554Z 29005KT 10SM CLR 18/16 A2990 RMK AO2 SLP125 60054 T01780161 10233 20178 51002
Notes: USTRANSCOM CONTRACT FLIGHT | 1X PER WEEK | PAYLOAD LIMITED | ETOPS